sensor_id;sensor_type;location;lat;lon;timestamp;temperature;humidity
38436;DHT22;24220;48.168;14.024;2023-05-19T00:01:33;16.40;65.80
38436;DHT22;24220;48.168;14.024;2023-05-19T00:04:03;16.30;65.70
38436;DHT22;24220;48.168;14.024;2023-05-19T00:06:33;16.30;65.70
38436;DHT22;24220;48.168;14.024;2023-05-19T00:09:04;16.30;65.70
38436;DHT22;24220;48.168;14.024;2023-05-19T00:11:32;16.30;65.90
38436;DHT22;24220;48.168;14.024;2023-05-19T00:14:05;16.30;66.00
38436;DHT22;24220;48.168;14.024;2023-05-19T00:16:37;16.20;66.10
38436;DHT22;24220;48.168;14.024;2023-05-19T00:19:05;16.20;66.10
38436;DHT22;24220;48.168;14.024;2023-05-19T00:21:36;16.20;66.10
38436;DHT22;24220;48.168;14.024;2023-05-19T00:24:05;16.20;66.20
38436;DHT22;24220;48.168;14.024;2023-05-19T00:26:33;16.20;66.20
38436;DHT22;24220;48.168;14.024;2023-05-19T00:29:02;16.20;66.20
38436;DHT22;24220;48.168;14.024;2023-05-19T00:31:34;16.20;66.10
38436;DHT22;24220;48.168;14.024;2023-05-19T00:34:04;16.20;66.20
38436;DHT22;24220;48.168;14.024;2023-05-19T00:36:32;16.20;66.10
38436;DHT22;24220;48.168;14.024;2023-05-19T00:39:02;16.20;66.20
38436;DHT22;24220;48.168;14.024;2023-05-19T00:41:30;16.20;66.20
38436;DHT22;24220;48.168;14.024;2023-05-19T00:43:59;16.20;66.20
38436;DHT22;24220;48.168;14.024;2023-05-19T00:46:29;16.20;66.20
38436;DHT22;24220;48.168;14.024;2023-05-19T00:48:57;16.20;66.20
38436;DHT22;24220;48.168;14.024;2023-05-19T00:51:27;16.20;66.20
38436;DHT22;24220;48.168;14.024;2023-05-19T00:53:59;16.20;66.20
38436;DHT22;24220;48.168;14.024;2023-05-19T00:56:30;16.20;66.10
38436;DHT22;24220;48.168;14.024;2023-05-19T00:59:00;16.20;66.10
38436;DHT22;24220;48.168;14.024;2023-05-19T01:01:29;16.10;66.10
38436;DHT22;24220;48.168;14.024;2023-05-19T01:03:59;16.20;66.20
38436;DHT22;24220;48.168;14.024;2023-05-19T01:06:26;16.20;66.20
38436;DHT22;24220;48.168;14.024;2023-05-19T01:08:57;16.20;66.00
38436;DHT22;24220;48.168;14.024;2023-05-19T01:11:25;16.20;66.20
38436;DHT22;24220;48.168;14.024;2023-05-19T01:13:57;16.20;66.00
38436;DHT22;24220;48.168;14.024;2023-05-19T01:16:31;16.20;66.10
38436;DHT22;24220;48.168;14.024;2023-05-19T01:24:49;16.20;65.60
38436;DHT22;24220;48.168;14.024;2023-05-19T01:32:59;16.20;65.70
38436;DHT22;24220;48.168;14.024;2023-05-19T01:35:30;16.20;65.70
38436;DHT22;24220;48.168;14.024;2023-05-19T01:37:59;16.20;65.50
38436;DHT22;24220;48.168;14.024;2023-05-19T01:40:33;16.20;65.80
38436;DHT22;24220;48.168;14.024;2023-05-19T01:43:01;16.20;65.50
38436;DHT22;24220;48.168;14.024;2023-05-19T01:45:33;16.20;65.60
38436;DHT22;24220;48.168;14.024;2023-05-19T01:48:05;16.20;65.80
38436;DHT22;24220;48.168;14.024;2023-05-19T01:50:37;16.20;65.60
38436;DHT22;24220;48.168;14.024;2023-05-19T01:53:04;16.20;65.70
38436;DHT22;24220;48.168;14.024;2023-05-19T01:55:42;16.20;65.60
38436;DHT22;24220;48.168;14.024;2023-05-19T02:03:36;16.20;65.70
38436;DHT22;24220;48.168;14.024;2023-05-19T02:14:08;16.10;66.00
38436;DHT22;24220;48.168;14.024;2023-05-19T02:16:44;16.10;66.00
38436;DHT22;24220;48.168;14.024;2023-05-19T02:19:32;16.10;66.10
38436;DHT22;24220;48.168;14.024;2023-05-19T02:22:02;16.10;66.10
38436;DHT22;24220;48.168;14.024;2023-05-19T02:24:34;16.10;66.10
38436;DHT22;24220;48.168;14.024;2023-05-19T02:27:03;16.10;66.10
38436;DHT22;24220;48.168;14.024;2023-05-19T02:29:33;16.10;66.10
38436;DHT22;24220;48.168;14.024;2023-05-19T02:32:04;16.10;66.20
38436;DHT22;24220;48.168;14.024;2023-05-19T02:34:31;16.10;66.10
38436;DHT22;24220;48.168;14.024;2023-05-19T02:36:59;16.10;66.20
38436;DHT22;24220;48.168;14.024;2023-05-19T02:39:29;16.10;66.10
38436;DHT22;24220;48.168;14.024;2023-05-19T02:42:01;16.10;66.10
38436;DHT22;24220;48.168;14.024;2023-05-19T02:44:28;16.10;66.10
38436;DHT22;24220;48.168;14.024;2023-05-19T02:46:56;16.10;66.10
38436;DHT22;24220;48.168;14.024;2023-05-19T02:49:23;16.10;66.10
38436;DHT22;24220;48.168;14.024;2023-05-19T02:51:52;16.10;66.10
38436;DHT22;24220;48.168;14.024;2023-05-19T02:54:20;16.10;66.10
38436;DHT22;24220;48.168;14.024;2023-05-19T02:56:47;16.10;66.10
38436;DHT22;24220;48.168;14.024;2023-05-19T02:59:14;16.10;66.10
38436;DHT22;24220;48.168;14.024;2023-05-19T03:01:44;16.10;66.10
38436;DHT22;24220;48.168;14.024;2023-05-19T03:04:14;16.10;66.10
38436;DHT22;24220;48.168;14.024;2023-05-19T03:06:41;16.20;66.10
38436;DHT22;24220;48.168;14.024;2023-05-19T03:09:12;16.10;66.00
38436;DHT22;24220;48.168;14.024;2023-05-19T03:11:44;16.10;66.10
38436;DHT22;24220;48.168;14.024;2023-05-19T03:14:11;16.10;66.10
38436;DHT22;24220;48.168;14.024;2023-05-19T03:16:42;16.20;66.20
38436;DHT22;24220;48.168;14.024;2023-05-19T03:19:12;16.20;66.20
38436;DHT22;24220;48.168;14.024;2023-05-19T03:21:44;16.10;66.30
38436;DHT22;24220;48.168;14.024;2023-05-19T03:24:12;16.10;66.10
38436;DHT22;24220;48.168;14.024;2023-05-19T03:26:42;16.10;66.10
38436;DHT22;24220;48.168;14.024;2023-05-19T03:29:09;16.10;66.10
38436;DHT22;24220;48.168;14.024;2023-05-19T03:31:37;16.10;66.10
38436;DHT22;24220;48.168;14.024;2023-05-19T03:34:04;16.10;65.90
38436;DHT22;24220;48.168;14.024;2023-05-19T03:36:36;16.10;65.90
38436;DHT22;24220;48.168;14.024;2023-05-19T03:39:08;16.10;65.80
38436;DHT22;24220;48.168;14.024;2023-05-19T03:41:40;16.10;65.70
38436;DHT22;24220;48.168;14.024;2023-05-19T03:44:08;16.10;65.60
38436;DHT22;24220;48.168;14.024;2023-05-19T03:46:37;16.10;65.50
38436;DHT22;24220;48.168;14.024;2023-05-19T03:49:04;16.10;65.60
38436;DHT22;24220;48.168;14.024;2023-05-19T03:51:32;16.00;65.60
38436;DHT22;24220;48.168;14.024;2023-05-19T03:54:01;16.00;65.80
38436;DHT22;24220;48.168;14.024;2023-05-19T03:56:31;16.00;65.70
38436;DHT22;24220;48.168;14.024;2023-05-19T03:59:01;16.00;65.80
38436;DHT22;24220;48.168;14.024;2023-05-19T04:01:32;16.00;66.00
38436;DHT22;24220;48.168;14.024;2023-05-19T04:03:59;16.00;65.90
38436;DHT22;24220;48.168;14.024;2023-05-19T04:06:30;16.00;66.00
38436;DHT22;24220;48.168;14.024;2023-05-19T04:09:01;16.00;66.00
38436;DHT22;24220;48.168;14.024;2023-05-19T04:11:29;16.00;66.00
38436;DHT22;24220;48.168;14.024;2023-05-19T04:13:57;16.00;66.00
38436;DHT22;24220;48.168;14.024;2023-05-19T04:16:24;16.00;66.00
38436;DHT22;24220;48.168;14.024;2023-05-19T04:18:52;16.00;66.00
38436;DHT22;24220;48.168;14.024;2023-05-19T04:21:19;16.00;66.00
38436;DHT22;24220;48.168;14.024;2023-05-19T04:23:48;16.00;66.10
38436;DHT22;24220;48.168;14.024;2023-05-19T04:26:18;16.00;66.00
38436;DHT22;24220;48.168;14.024;2023-05-19T04:28:47;16.00;66.00
38436;DHT22;24220;48.168;14.024;2023-05-19T04:31:15;16.00;66.10
38436;DHT22;24220;48.168;14.024;2023-05-19T04:33:46;16.00;66.00
38436;DHT22;24220;48.168;14.024;2023-05-19T04:36:14;16.00;66.00
38436;DHT22;24220;48.168;14.024;2023-05-19T04:38:43;16.00;66.00
38436;DHT22;24220;48.168;14.024;2023-05-19T04:41:13;16.00;65.80
38436;DHT22;24220;48.168;14.024;2023-05-19T04:43:42;15.90;65.80
38436;DHT22;24220;48.168;14.024;2023-05-19T04:46:10;16.00;65.70
38436;DHT22;24220;48.168;14.024;2023-05-19T04:48:40;15.90;65.70
38436;DHT22;24220;48.168;14.024;2023-05-19T04:51:07;15.90;66.30
38436;DHT22;24220;48.168;14.024;2023-05-19T04:53:41;15.90;65.40
38436;DHT22;24220;48.168;14.024;2023-05-19T04:56:09;15.90;65.70
38436;DHT22;24220;48.168;14.024;2023-05-19T04:58:40;15.90;65.60
38436;DHT22;24220;48.168;14.024;2023-05-19T05:01:08;15.90;65.50
38436;DHT22;24220;48.168;14.024;2023-05-19T05:03:35;15.80;65.40
38436;DHT22;24220;48.168;14.024;2023-05-19T05:06:03;15.80;65.30
38436;DHT22;24220;48.168;14.024;2023-05-19T05:08:31;15.80;65.30
38436;DHT22;24220;48.168;14.024;2023-05-19T05:10:59;15.80;65.30
38436;DHT22;24220;48.168;14.024;2023-05-19T05:13:28;15.80;65.50
38436;DHT22;24220;48.168;14.024;2023-05-19T05:15:58;15.80;65.40
38436;DHT22;24220;48.168;14.024;2023-05-19T05:18:26;15.80;65.50
38436;DHT22;24220;48.168;14.024;2023-05-19T05:20:53;15.80;65.40
38436;DHT22;24220;48.168;14.024;2023-05-19T05:23:21;15.90;65.30
38436;DHT22;24220;48.168;14.024;2023-05-19T05:25:49;15.80;65.50
38436;DHT22;24220;48.168;14.024;2023-05-19T05:28:19;15.80;65.60
38436;DHT22;24220;48.168;14.024;2023-05-19T05:30:51;15.80;65.60
38436;DHT22;24220;48.168;14.024;2023-05-19T05:33:22;15.80;65.30
38436;DHT22;24220;48.168;14.024;2023-05-19T05:35:53;15.90;65.40
38436;DHT22;24220;48.168;14.024;2023-05-19T05:38:20;15.90;65.50
38436;DHT22;24220;48.168;14.024;2023-05-19T05:40:50;15.90;65.50
38436;DHT22;24220;48.168;14.024;2023-05-19T05:43:19;15.90;65.30
38436;DHT22;24220;48.168;14.024;2023-05-19T05:45:47;15.80;65.20
38436;DHT22;24220;48.168;14.024;2023-05-19T05:48:14;15.90;65.50
38436;DHT22;24220;48.168;14.024;2023-05-19T05:50:42;15.90;65.60
38436;DHT22;24220;48.168;14.024;2023-05-19T05:53:15;15.90;65.50
38436;DHT22;24220;48.168;14.024;2023-05-19T05:55:47;15.90;65.50
38436;DHT22;24220;48.168;14.024;2023-05-19T05:58:16;15.90;65.60
38436;DHT22;24220;48.168;14.024;2023-05-19T06:00:43;15.90;65.60
38436;DHT22;24220;48.168;14.024;2023-05-19T06:03:13;15.90;65.80
38436;DHT22;24220;48.168;14.024;2023-05-19T06:05:43;15.90;65.70
38436;DHT22;24220;48.168;14.024;2023-05-19T06:08:11;15.90;65.40
38436;DHT22;24220;48.168;14.024;2023-05-19T06:10:40;15.90;65.60
38436;DHT22;24220;48.168;14.024;2023-05-19T06:13:13;15.90;65.40
38436;DHT22;24220;48.168;14.024;2023-05-19T06:15:43;15.90;65.50
38436;DHT22;24220;48.168;14.024;2023-05-19T06:18:11;15.90;65.30
38436;DHT22;24220;48.168;14.024;2023-05-19T06:20:38;15.90;65.10
38436;DHT22;24220;48.168;14.024;2023-05-19T06:23:06;15.90;65.00
38436;DHT22;24220;48.168;14.024;2023-05-19T06:25:33;15.90;65.20
38436;DHT22;24220;48.168;14.024;2023-05-19T06:28:01;15.90;65.50
38436;DHT22;24220;48.168;14.024;2023-05-19T06:30:28;15.90;65.30
38436;DHT22;24220;48.168;14.024;2023-05-19T06:32:58;15.90;65.50
38436;DHT22;24220;48.168;14.024;2023-05-19T06:35:26;15.90;65.30
38436;DHT22;24220;48.168;14.024;2023-05-19T06:37:53;15.90;65.30
38436;DHT22;24220;48.168;14.024;2023-05-19T06:40:22;15.90;65.30
38436;DHT22;24220;48.168;14.024;2023-05-19T06:42:54;16.00;65.30
38436;DHT22;24220;48.168;14.024;2023-05-19T06:45:25;16.00;65.10
38436;DHT22;24220;48.168;14.024;2023-05-19T06:47:52;16.00;64.80
38436;DHT22;24220;48.168;14.024;2023-05-19T06:50:20;16.00;64.70
38436;DHT22;24220;48.168;14.024;2023-05-19T06:52:47;16.00;64.30
38436;DHT22;24220;48.168;14.024;2023-05-19T06:55:17;15.90;64.30
38436;DHT22;24220;48.168;14.024;2023-05-19T06:57:47;16.00;64.60
38436;DHT22;24220;48.168;14.024;2023-05-19T07:00:15;16.00;64.30
38436;DHT22;24220;48.168;14.024;2023-05-19T07:02:49;16.00;64.10
38436;DHT22;24220;48.168;14.024;2023-05-19T07:05:18;16.00;63.80
38436;DHT22;24220;48.168;14.024;2023-05-19T07:07:46;16.00;63.60
38436;DHT22;24220;48.168;14.024;2023-05-19T07:10:13;16.00;63.90
38436;DHT22;24220;48.168;14.024;2023-05-19T07:12:41;16.00;64.20
38436;DHT22;24220;48.168;14.024;2023-05-19T07:15:09;16.00;64.20
38436;DHT22;24220;48.168;14.024;2023-05-19T07:17:36;16.00;64.00
38436;DHT22;24220;48.168;14.024;2023-05-19T07:20:06;16.00;63.70
38436;DHT22;24220;48.168;14.024;2023-05-19T07:22:38;16.00;63.70
38436;DHT22;24220;48.168;14.024;2023-05-19T07:25:06;16.00;63.50
38436;DHT22;24220;48.168;14.024;2023-05-19T07:27:36;16.10;64.00
38436;DHT22;24220;48.168;14.024;2023-05-19T07:30:06;16.10;63.90
38436;DHT22;24220;48.168;14.024;2023-05-19T07:32:34;16.00;63.80
38436;DHT22;24220;48.168;14.024;2023-05-19T07:35:01;16.10;63.60
38436;DHT22;24220;48.168;14.024;2023-05-19T07:37:29;16.10;64.10
38436;DHT22;24220;48.168;14.024;2023-05-19T07:39:58;16.10;63.80
38436;DHT22;24220;48.168;14.024;2023-05-19T07:42:28;16.10;64.00
38436;DHT22;24220;48.168;14.024;2023-05-19T07:44:55;16.10;63.70
38436;DHT22;24220;48.168;14.024;2023-05-19T07:47:22;16.10;63.70
38436;DHT22;24220;48.168;14.024;2023-05-19T07:49:52;16.10;63.70
38436;DHT22;24220;48.168;14.024;2023-05-19T07:52:19;16.10;63.80
38436;DHT22;24220;48.168;14.024;2023-05-19T07:54:49;16.10;63.60
38436;DHT22;24220;48.168;14.024;2023-05-19T07:57:17;16.10;63.50
38436;DHT22;24220;48.168;14.024;2023-05-19T07:59:47;16.10;63.90
38436;DHT22;24220;48.168;14.024;2023-05-19T08:02:14;16.10;63.90
38436;DHT22;24220;48.168;14.024;2023-05-19T08:04:46;16.10;64.00
38436;DHT22;24220;48.168;14.024;2023-05-19T08:07:15;16.10;64.10
38436;DHT22;24220;48.168;14.024;2023-05-19T08:09:42;16.10;63.70
38436;DHT22;24220;48.168;14.024;2023-05-19T08:12:10;16.20;63.80
38436;DHT22;24220;48.168;14.024;2023-05-19T08:14:37;16.20;63.80
38436;DHT22;24220;48.168;14.024;2023-05-19T08:17:07;16.20;63.60
38436;DHT22;24220;48.168;14.024;2023-05-19T08:19:36;16.20;63.70
38436;DHT22;24220;48.168;14.024;2023-05-19T08:22:04;16.30;63.60
38436;DHT22;24220;48.168;14.024;2023-05-19T08:24:34;16.30;63.80
38436;DHT22;24220;48.168;14.024;2023-05-19T08:27:01;16.30;63.80
38436;DHT22;24220;48.168;14.024;2023-05-19T08:29:34;16.30;63.70
38436;DHT22;24220;48.168;14.024;2023-05-19T08:32:05;16.30;63.90
38436;DHT22;24220;48.168;14.024;2023-05-19T08:34:34;16.40;64.40
38436;DHT22;24220;48.168;14.024;2023-05-19T08:37:02;16.50;63.80
38436;DHT22;24220;48.168;14.024;2023-05-19T08:39:32;16.50;63.50
38436;DHT22;24220;48.168;14.024;2023-05-19T08:42:00;16.50;63.80
38436;DHT22;24220;48.168;14.024;2023-05-19T08:44:28;16.50;63.70
38436;DHT22;24220;48.168;14.024;2023-05-19T08:47:02;16.60;64.00
38436;DHT22;24220;48.168;14.024;2023-05-19T08:49:32;16.60;64.00
38436;DHT22;24220;48.168;14.024;2023-05-19T08:52:09;16.60;63.60
38436;DHT22;24220;48.168;14.024;2023-05-19T08:54:49;16.60;63.30
38436;DHT22;24220;48.168;14.024;2023-05-19T08:57:21;16.60;63.60
38436;DHT22;24220;48.168;14.024;2023-05-19T08:59:50;16.70;64.00
38436;DHT22;24220;48.168;14.024;2023-05-19T09:02:21;16.70;64.10
38436;DHT22;24220;48.168;14.024;2023-05-19T09:04:51;16.70;63.90
38436;DHT22;24220;48.168;14.024;2023-05-19T09:07:22;16.70;64.10
38436;DHT22;24220;48.168;14.024;2023-05-19T09:09:51;16.80;64.40
38436;DHT22;24220;48.168;14.024;2023-05-19T09:12:21;16.80;64.50
38436;DHT22;24220;48.168;14.024;2023-05-19T09:14:53;16.90;64.60
38436;DHT22;24220;48.168;14.024;2023-05-19T09:17:22;16.90;64.70
38436;DHT22;24220;48.168;14.024;2023-05-19T09:19:50;16.90;64.30
38436;DHT22;24220;48.168;14.024;2023-05-19T09:22:17;17.00;64.10
38436;DHT22;24220;48.168;14.024;2023-05-19T09:24:46;17.00;64.40
38436;DHT22;24220;48.168;14.024;2023-05-19T09:27:14;17.00;64.30
38436;DHT22;24220;48.168;14.024;2023-05-19T09:29:48;17.00;65.00
38436;DHT22;24220;48.168;14.024;2023-05-19T09:32:26;17.10;65.30
38436;DHT22;24220;48.168;14.024;2023-05-19T09:34:53;17.10;64.50
38436;DHT22;24220;48.168;14.024;2023-05-19T09:37:22;17.20;64.80
38436;DHT22;24220;48.168;14.024;2023-05-19T09:39:55;17.30;65.40
38436;DHT22;24220;48.168;14.024;2023-05-19T09:42:26;17.30;66.40
38436;DHT22;24220;48.168;14.024;2023-05-19T09:45:02;17.40;66.20
38436;DHT22;24220;48.168;14.024;2023-05-19T09:47:39;17.40;65.40
38436;DHT22;24220;48.168;14.024;2023-05-19T09:50:10;17.50;65.60
38436;DHT22;24220;48.168;14.024;2023-05-19T09:52:39;17.60;65.90
38436;DHT22;24220;48.168;14.024;2023-05-19T09:55:11;17.60;66.40
38436;DHT22;24220;48.168;14.024;2023-05-19T09:57:39;17.70;65.90
38436;DHT22;24220;48.168;14.024;2023-05-19T10:00:10;17.80;65.40
38436;DHT22;24220;48.168;14.024;2023-05-19T10:02:47;17.80;65.30
38436;DHT22;24220;48.168;14.024;2023-05-19T10:05:19;17.90;64.80
38436;DHT22;24220;48.168;14.024;2023-05-19T10:07:50;17.90;64.50
38436;DHT22;24220;48.168;14.024;2023-05-19T10:10:19;18.00;64.40
38436;DHT22;24220;48.168;14.024;2023-05-19T10:12:47;18.10;65.00
38436;DHT22;24220;48.168;14.024;2023-05-19T10:15:16;18.10;66.60
38436;DHT22;24220;48.168;14.024;2023-05-19T10:17:49;18.20;65.60
38436;DHT22;24220;48.168;14.024;2023-05-19T10:20:17;18.20;65.80
38436;DHT22;24220;48.168;14.024;2023-05-19T10:22:45;18.30;65.10
38436;DHT22;24220;48.168;14.024;2023-05-19T10:25:13;18.30;65.50
38436;DHT22;24220;48.168;14.024;2023-05-19T10:27:57;18.40;66.00
38436;DHT22;24220;48.168;14.024;2023-05-19T10:30:32;18.50;65.60
38436;DHT22;24220;48.168;14.024;2023-05-19T10:33:00;18.60;65.80
38436;DHT22;24220;48.168;14.024;2023-05-19T10:38:52;18.70;66.00
38436;DHT22;24220;48.168;14.024;2023-05-19T10:44:50;18.80;65.80
38436;DHT22;24220;48.168;14.024;2023-05-19T10:47:24;18.90;65.70
38436;DHT22;24220;48.168;14.024;2023-05-19T10:49:52;19.00;64.70
38436;DHT22;24220;48.168;14.024;2023-05-19T10:52:23;19.00;64.70
38436;DHT22;24220;48.168;14.024;2023-05-19T10:54:58;19.10;64.90
38436;DHT22;24220;48.168;14.024;2023-05-19T10:57:30;19.10;65.30
38436;DHT22;24220;48.168;14.024;2023-05-19T11:00:27;19.10;64.70
38436;DHT22;24220;48.168;14.024;2023-05-19T11:03:17;19.20;65.00
38436;DHT22;24220;48.168;14.024;2023-05-19T11:05:50;19.20;64.70
38436;DHT22;24220;48.168;14.024;2023-05-19T11:08:31;19.30;64.20
38436;DHT22;24220;48.168;14.024;2023-05-19T11:11:14;19.30;64.20
38436;DHT22;24220;48.168;14.024;2023-05-19T11:13:48;19.40;64.50
38436;DHT22;24220;48.168;14.024;2023-05-19T11:16:34;19.40;64.40
38436;DHT22;24220;48.168;14.024;2023-05-19T11:19:05;19.50;64.30
38436;DHT22;24220;48.168;14.024;2023-05-19T11:24:09;19.50;64.80
38436;DHT22;24220;48.168;14.024;2023-05-19T11:26:59;19.60;65.70
38436;DHT22;24220;48.168;14.024;2023-05-19T11:29:43;19.70;65.10
38436;DHT22;24220;48.168;14.024;2023-05-19T11:32:15;19.80;65.70
38436;DHT22;24220;48.168;14.024;2023-05-19T11:34:47;19.80;64.40
38436;DHT22;24220;48.168;14.024;2023-05-19T11:37:17;19.80;64.50
38436;DHT22;24220;48.168;14.024;2023-05-19T11:39:45;19.90;64.50
38436;DHT22;24220;48.168;14.024;2023-05-19T11:42:13;20.00;63.50
38436;DHT22;24220;48.168;14.024;2023-05-19T11:44:44;20.00;63.30
38436;DHT22;24220;48.168;14.024;2023-05-19T11:47:16;20.00;62.80
38436;DHT22;24220;48.168;14.024;2023-05-19T11:49:47;20.10;63.40
38436;DHT22;24220;48.168;14.024;2023-05-19T11:52:22;20.10;62.90
38436;DHT22;24220;48.168;14.024;2023-05-19T11:54:52;20.10;64.10
38436;DHT22;24220;48.168;14.024;2023-05-19T11:57:23;20.20;63.50
38436;DHT22;24220;48.168;14.024;2023-05-19T11:59:52;20.20;63.30
38436;DHT22;24220;48.168;14.024;2023-05-19T12:02:23;20.20;65.30
38436;DHT22;24220;48.168;14.024;2023-05-19T12:04:51;20.30;63.90
38436;DHT22;24220;48.168;14.024;2023-05-19T12:07:21;20.30;63.90
38436;DHT22;24220;48.168;14.024;2023-05-19T12:09:50;20.40;64.40
38436;DHT22;24220;48.168;14.024;2023-05-19T12:12:19;20.50;65.30
38436;DHT22;24220;48.168;14.024;2023-05-19T12:14:51;20.50;64.10
38436;DHT22;24220;48.168;14.024;2023-05-19T12:17:19;20.60;63.60
38436;DHT22;24220;48.168;14.024;2023-05-19T12:19:47;20.70;63.10
38436;DHT22;24220;48.168;14.024;2023-05-19T12:22:18;20.70;63.90
38436;DHT22;24220;48.168;14.024;2023-05-19T12:24:46;20.80;63.10
38436;DHT22;24220;48.168;14.024;2023-05-19T12:27:23;20.80;63.40
38436;DHT22;24220;48.168;14.024;2023-05-19T12:29:54;20.90;63.30
38436;DHT22;24220;48.168;14.024;2023-05-19T12:32:26;20.90;62.70
38436;DHT22;24220;48.168;14.024;2023-05-19T12:34:57;21.00;63.90
38436;DHT22;24220;48.168;14.024;2023-05-19T12:37:35;21.00;63.60
38436;DHT22;24220;48.168;14.024;2023-05-19T12:40:03;21.10;63.70
38436;DHT22;24220;48.168;14.024;2023-05-19T12:42:33;21.20;63.40
38436;DHT22;24220;48.168;14.024;2023-05-19T12:45:02;21.20;64.20
38436;DHT22;24220;48.168;14.024;2023-05-19T12:47:32;21.30;64.50
38436;DHT22;24220;48.168;14.024;2023-05-19T12:52:31;21.50;63.20
38436;DHT22;24220;48.168;14.024;2023-05-19T12:55:06;21.60;63.60
38436;DHT22;24220;48.168;14.024;2023-05-19T12:57:40;21.70;61.80
38436;DHT22;24220;48.168;14.024;2023-05-19T13:00:13;21.70;61.80
38436;DHT22;24220;48.168;14.024;2023-05-19T13:03:00;21.70;62.10
38436;DHT22;24220;48.168;14.024;2023-05-19T13:05:29;21.70;62.10
38436;DHT22;24220;48.168;14.024;2023-05-19T13:10:28;21.70;62.00
38436;DHT22;24220;48.168;14.024;2023-05-19T13:12:57;21.70;61.80
38436;DHT22;24220;48.168;14.024;2023-05-19T13:15:27;21.70;62.10
38436;DHT22;24220;48.168;14.024;2023-05-19T13:17:58;21.70;62.60
38436;DHT22;24220;48.168;14.024;2023-05-19T13:20:26;21.70;63.50
38436;DHT22;24220;48.168;14.024;2023-05-19T13:22:54;21.70;63.40
38436;DHT22;24220;48.168;14.024;2023-05-19T13:25:23;21.70;62.80
38436;DHT22;24220;48.168;14.024;2023-05-19T13:27:50;21.60;62.70
38436;DHT22;24220;48.168;14.024;2023-05-19T13:30:18;21.60;63.30
38436;DHT22;24220;48.168;14.024;2023-05-19T13:32:47;21.60;63.20
38436;DHT22;24220;48.168;14.024;2023-05-19T13:35:14;21.60;62.90
38436;DHT22;24220;48.168;14.024;2023-05-19T13:37:42;21.60;63.40
38436;DHT22;24220;48.168;14.024;2023-05-19T13:40:10;21.60;63.20
38436;DHT22;24220;48.168;14.024;2023-05-19T13:42:37;21.60;63.00
38436;DHT22;24220;48.168;14.024;2023-05-19T13:45:05;21.60;62.60
38436;DHT22;24220;48.168;14.024;2023-05-19T13:47:32;21.60;63.10
38436;DHT22;24220;48.168;14.024;2023-05-19T13:50:01;21.60;62.90
38436;DHT22;24220;48.168;14.024;2023-05-19T13:52:32;21.60;62.40
38436;DHT22;24220;48.168;14.024;2023-05-19T13:54:59;21.50;62.60
38436;DHT22;24220;48.168;14.024;2023-05-19T13:57:29;21.50;62.70
38436;DHT22;24220;48.168;14.024;2023-05-19T13:59:56;21.60;62.90
38436;DHT22;24220;48.168;14.024;2023-05-19T14:02:30;21.50;63.10
38436;DHT22;24220;48.168;14.024;2023-05-19T14:05:00;21.60;63.10
38436;DHT22;24220;48.168;14.024;2023-05-19T14:07:27;21.60;63.20
38436;DHT22;24220;48.168;14.024;2023-05-19T14:09:55;21.60;63.30
38436;DHT22;24220;48.168;14.024;2023-05-19T14:12:25;21.60;63.20
38436;DHT22;24220;48.168;14.024;2023-05-19T14:15:06;21.60;63.40
38436;DHT22;24220;48.168;14.024;2023-05-19T14:17:35;21.60;63.40
38436;DHT22;24220;48.168;14.024;2023-05-19T14:20:03;21.60;63.20
38436;DHT22;24220;48.168;14.024;2023-05-19T14:22:30;21.60;63.20
38436;DHT22;24220;48.168;14.024;2023-05-19T14:25:00;21.60;63.70
38436;DHT22;24220;48.168;14.024;2023-05-19T14:27:28;21.60;62.90
38436;DHT22;24220;48.168;14.024;2023-05-19T14:29:55;21.60;63.10
38436;DHT22;24220;48.168;14.024;2023-05-19T14:32:23;21.60;63.40
38436;DHT22;24220;48.168;14.024;2023-05-19T14:34:50;21.60;63.90
38436;DHT22;24220;48.168;14.024;2023-05-19T14:37:21;21.70;63.90
38436;DHT22;24220;48.168;14.024;2023-05-19T14:39:49;21.70;63.40
38436;DHT22;24220;48.168;14.024;2023-05-19T14:42:16;21.70;63.60
38436;DHT22;24220;48.168;14.024;2023-05-19T14:44:46;21.70;63.80
38436;DHT22;24220;48.168;14.024;2023-05-19T14:47:13;21.70;63.40
38436;DHT22;24220;48.168;14.024;2023-05-19T14:49:41;21.80;63.70
38436;DHT22;24220;48.168;14.024;2023-05-19T14:52:08;21.80;64.00
38436;DHT22;24220;48.168;14.024;2023-05-19T14:54:38;21.80;63.90
38436;DHT22;24220;48.168;14.024;2023-05-19T14:57:07;21.80;63.80
38436;DHT22;24220;48.168;14.024;2023-05-19T14:59:40;21.90;63.20
38436;DHT22;24220;48.168;14.024;2023-05-19T15:02:07;21.90;63.40
38436;DHT22;24220;48.168;14.024;2023-05-19T15:04:34;21.90;63.60
38436;DHT22;24220;48.168;14.024;2023-05-19T15:07:02;21.90;63.60
38436;DHT22;24220;48.168;14.024;2023-05-19T15:09:32;21.90;63.90
38436;DHT22;24220;48.168;14.024;2023-05-19T15:12:00;21.90;63.50
38436;DHT22;24220;48.168;14.024;2023-05-19T15:14:27;21.90;63.50
38436;DHT22;24220;48.168;14.024;2023-05-19T15:16:57;21.90;63.40
38436;DHT22;24220;48.168;14.024;2023-05-19T15:19:25;21.90;63.40
38436;DHT22;24220;48.168;14.024;2023-05-19T15:21:53;21.90;64.10
38436;DHT22;24220;48.168;14.024;2023-05-19T15:24:20;22.00;63.30
38436;DHT22;24220;48.168;14.024;2023-05-19T15:26:50;22.00;63.40
38436;DHT22;24220;48.168;14.024;2023-05-19T15:29:20;22.00;63.50
38436;DHT22;24220;48.168;14.024;2023-05-19T15:31:50;21.90;63.30
38436;DHT22;24220;48.168;14.024;2023-05-19T15:34:18;21.90;63.40
38436;DHT22;24220;48.168;14.024;2023-05-19T15:36:46;22.00;63.20
38436;DHT22;24220;48.168;14.024;2023-05-19T15:39:15;21.90;63.30
38436;DHT22;24220;48.168;14.024;2023-05-19T15:41:43;21.90;63.50
38436;DHT22;24220;48.168;14.024;2023-05-19T15:44:10;21.90;63.00
38436;DHT22;24220;48.168;14.024;2023-05-19T15:46:38;21.90;62.70
38436;DHT22;24220;48.168;14.024;2023-05-19T15:49:05;21.90;62.90
38436;DHT22;24220;48.168;14.024;2023-05-19T15:51:35;21.90;63.20
38436;DHT22;24220;48.168;14.024;2023-05-19T15:54:02;21.90;63.40
38436;DHT22;24220;48.168;14.024;2023-05-19T15:56:30;21.90;63.70
38436;DHT22;24220;48.168;14.024;2023-05-19T15:58:57;21.90;63.80
38436;DHT22;24220;48.168;14.024;2023-05-19T16:01:25;21.90;63.60
38436;DHT22;24220;48.168;14.024;2023-05-19T16:03:52;21.90;63.70
38436;DHT22;24220;48.168;14.024;2023-05-19T16:06:20;21.90;63.60
38436;DHT22;24220;48.168;14.024;2023-05-19T16:08:47;21.90;63.50
38436;DHT22;24220;48.168;14.024;2023-05-19T16:11:14;21.90;63.30